createdAt,value
2018-12-05T00:00:38.298Z,4.62
2018-12-05T00:03:06.655Z,4.63
2018-12-05T00:05:34.998Z,4.64
2018-12-05T00:08:03.336Z,4.64
2018-12-05T00:10:31.647Z,4.64
2018-12-05T00:12:59.987Z,4.66
2018-12-05T00:15:28.309Z,4.67
2018-12-05T00:17:56.633Z,4.69
2018-12-05T00:20:24.980Z,4.69
2018-12-05T00:22:53.300Z,4.71
2018-12-05T00:25:21.671Z,4.71
2018-12-05T00:27:50.619Z,4.70
2018-12-05T00:30:19.009Z,4.69
2018-12-05T00:32:47.724Z,4.68
2018-12-05T00:35:16.040Z,4.67
2018-12-05T00:37:44.410Z,4.67
2018-12-05T00:40:13.017Z,4.66
2018-12-05T00:42:41.358Z,4.67
2018-12-05T00:45:09.711Z,4.67
2018-12-05T00:47:38.026Z,4.67
2018-12-05T00:50:06.603Z,4.67
2018-12-05T00:52:35.185Z,4.67
2018-12-05T00:55:03.522Z,4.67
2018-12-05T00:57:31.838Z,4.68
2018-12-05T01:00:00.167Z,4.69
2018-12-05T01:02:28.552Z,4.69
2018-12-05T01:04:56.865Z,4.69
2018-12-05T01:07:25.198Z,4.70
2018-12-05T01:13:00.378Z,4.72
2018-12-05T01:15:42.612Z,4.72
2018-12-05T01:18:10.994Z,4.72
2018-12-05T01:20:39.324Z,4.72
2018-12-05T01:23:07.707Z,4.71
2018-12-05T01:25:46.313Z,4.70
2018-12-05T01:28:14.707Z,4.69
2018-12-05T01:30:43.033Z,4.69
2018-12-05T01:33:11.372Z,4.67
2018-12-05T01:35:39.710Z,4.66
2018-12-05T01:38:08.069Z,4.62
2018-12-05T01:40:36.364Z,4.64
2018-12-05T01:43:04.694Z,4.62
2018-12-05T01:45:32.990Z,4.62
2018-12-05T01:48:01.326Z,4.63
2018-12-05T01:50:29.664Z,4.61
2018-12-05T01:52:57.998Z,4.62
2018-12-05T01:55:26.302Z,4.62
2018-12-05T01:57:54.613Z,4.62
2018-12-05T02:00:22.979Z,4.63
2018-12-05T02:02:51.264Z,4.61
2018-12-05T02:05:19.678Z,4.60
2018-12-05T02:07:47.993Z,4.60
2018-12-05T02:10:16.337Z,4.55
2018-12-05T02:12:44.702Z,4.54
2018-12-05T02:15:13.026Z,4.53
2018-12-05T02:17:41.356Z,4.49
2018-12-05T02:20:09.825Z,4.46
2018-12-05T02:22:38.145Z,4.44
2018-12-05T02:25:06.621Z,4.40
2018-12-05T02:27:34.954Z,4.37
2018-12-05T02:30:03.422Z,4.34
2018-12-05T02:32:31.763Z,4.31
2018-12-05T02:35:00.106Z,4.29
2018-12-05T02:37:28.470Z,4.26
2018-12-05T02:39:56.777Z,4.23
2018-12-05T02:42:25.073Z,4.21
2018-12-05T02:44:53.423Z,4.19
2018-12-05T02:47:21.751Z,4.18
2018-12-05T02:49:50.078Z,4.16
2018-12-05T02:52:18.403Z,4.15
2018-12-05T02:54:46.714Z,4.14
2018-12-05T02:57:15.026Z,4.12
2018-12-05T02:59:43.378Z,4.11
2018-12-05T03:02:11.684Z,4.09
2018-12-05T03:04:40.037Z,4.06
2018-12-05T03:07:08.339Z,4.03
2018-12-05T03:09:36.703Z,4.00
2018-12-05T03:12:05.167Z,3.97
2018-12-05T03:14:33.515Z,3.94
2018-12-05T03:17:01.832Z,3.90
2018-12-05T03:19:30.297Z,3.86
2018-12-05T03:21:58.651Z,3.83
2018-12-05T03:24:27.532Z,3.80
2018-12-05T03:26:55.846Z,3.78
2018-12-05T03:29:24.152Z,3.72
2018-12-05T03:31:52.510Z,3.70
2018-12-05T03:34:20.805Z,3.66
2018-12-05T03:36:49.112Z,3.65
2018-12-05T03:39:17.468Z,3.65
2018-12-05T03:41:45.752Z,3.63
2018-12-05T03:44:14.094Z,3.62
2018-12-05T03:46:42.424Z,3.62
2018-12-05T03:49:10.759Z,3.62
2018-12-05T03:51:39.043Z,3.62
2018-12-05T03:54:07.390Z,3.61
2018-12-05T03:56:35.679Z,3.60
2018-12-05T03:59:04.073Z,3.59
2018-12-05T04:01:32.366Z,3.60
2018-12-05T04:04:00.774Z,3.61
2018-12-05T04:06:29.151Z,3.62
2018-12-05T04:08:57.450Z,3.61
2018-12-05T04:11:25.774Z,3.63
2018-12-05T04:13:54.089Z,3.65
2018-12-05T04:16:22.420Z,3.66
2018-12-05T04:18:50.733Z,3.67
2018-12-05T04:21:19.061Z,3.67
2018-12-05T04:23:48.009Z,3.68
2018-12-05T04:26:16.323Z,3.69
2018-12-05T04:28:44.667Z,3.69
2018-12-05T04:31:13.002Z,3.69
2018-12-05T04:33:41.391Z,3.69
2018-12-05T04:36:09.725Z,3.70
2018-12-05T04:38:38.125Z,3.71
2018-12-05T04:41:06.453Z,3.73
2018-12-05T04:43:34.777Z,3.74
2018-12-05T04:46:03.110Z,3.76
2018-12-05T04:48:31.417Z,3.78
2018-12-05T04:51:00.726Z,3.80
2018-12-05T04:53:29.106Z,3.81
2018-12-05T04:55:57.398Z,3.82
2018-12-05T04:58:25.742Z,3.84
2018-12-05T05:00:54.046Z,3.85
2018-12-05T05:03:22.362Z,3.87
2018-12-05T05:05:50.704Z,3.87
2018-12-05T05:08:19.007Z,3.91
2018-12-05T05:10:47.368Z,3.92
2018-12-05T05:13:15.669Z,3.94
2018-12-05T05:15:43.976Z,3.97
2018-12-05T05:18:12.342Z,4.01
2018-12-05T05:20:40.708Z,4.05
2018-12-05T05:23:09.111Z,4.08
2018-12-05T05:25:37.472Z,4.13
2018-12-05T05:28:05.850Z,4.16
2018-12-05T05:30:34.209Z,4.19
2018-12-05T05:33:02.542Z,4.23
2018-12-05T05:35:30.848Z,4.28
2018-12-05T05:37:59.243Z,4.32
2018-12-05T05:40:27.565Z,4.36
2018-12-05T05:42:55.901Z,4.41
2018-12-05T05:45:24.214Z,4.48
2018-12-05T05:47:52.550Z,4.53
2018-12-05T05:50:20.883Z,4.57
2018-12-05T05:52:49.254Z,4.64
2018-12-05T05:55:17.549Z,4.69
2018-12-05T05:57:45.877Z,4.73
2018-12-05T06:00:14.168Z,4.78
2018-12-05T06:02:42.504Z,4.82
2018-12-05T06:08:10.593Z,4.93
2018-12-05T06:10:38.945Z,4.98
2018-12-05T06:13:07.298Z,5.01
2018-12-05T06:15:35.606Z,5.06
2018-12-05T06:18:03.960Z,5.10
2018-12-05T06:20:32.278Z,5.15
2018-12-05T06:23:00.607Z,5.20
2018-12-05T06:25:28.921Z,5.23
2018-12-05T06:28:10.012Z,4.93
2018-12-05T06:30:38.390Z,5.25
2018-12-05T06:33:06.729Z,5.32
2018-12-05T06:35:35.053Z,5.35
2018-12-05T06:38:16.239Z,5.37
2018-12-05T06:40:44.551Z,5.42
2018-12-05T06:43:12.863Z,5.44
2018-12-05T06:45:41.177Z,5.46
2018-12-05T06:48:09.497Z,5.46
2018-12-05T06:50:37.802Z,5.50
2018-12-05T06:53:06.126Z,5.54
2018-12-05T06:55:57.575Z,5.25
2018-12-05T06:58:40.148Z,5.60
2018-12-05T07:01:22.806Z,5.32
2018-12-05T07:04:03.538Z,5.37
2018-12-05T07:06:31.839Z,5.70
2018-12-05T07:09:12.550Z,5.71
2018-12-05T07:12:04.001Z,5.73
2018-12-05T07:14:35.775Z,5.76
2018-12-05T07:17:10.348Z,5.79
2018-12-05T07:19:42.175Z,5.80
2018-12-05T07:22:25.115Z,5.82
2018-12-05T07:25:12.490Z,5.54
2018-12-05T07:27:40.911Z,5.86
2018-12-05T07:30:21.836Z,5.87
2018-12-05T07:32:50.207Z,5.87
2018-12-05T07:35:18.506Z,5.87
2018-12-05T07:37:46.867Z,5.88
2018-12-05T07:40:32.210Z,5.90
2018-12-05T07:43:13.832Z,5.49
2018-12-05T07:46:01.182Z,5.93
2018-12-05T07:48:52.564Z,5.94
2018-12-05T07:51:24.261Z,5.96
2018-12-05T07:54:12.134Z,5.97
2018-12-05T07:57:10.607Z,5.76
2018-12-05T07:59:58.699Z,6.00
2018-12-05T08:02:39.801Z,5.66
2018-12-05T08:05:21.239Z,5.73
2018-12-05T08:07:52.853Z,6.07
2018-12-05T08:10:34.009Z,6.10
2018-12-05T08:13:15.564Z,6.14
2018-12-05T08:15:52.032Z,6.19
2018-12-05T08:18:33.169Z,6.25
2018-12-05T08:24:07.842Z,6.34
2018-12-05T08:26:40.156Z,6.37
2018-12-05T08:29:20.991Z,6.42
2018-12-05T08:32:01.699Z,6.46
2018-12-05T08:34:33.855Z,6.51
2018-12-05T08:37:19.118Z,6.56
2018-12-05T08:40:04.084Z,6.60
2018-12-05T08:42:47.236Z,6.66
2018-12-05T08:45:27.941Z,6.34
2018-12-05T08:48:10.106Z,6.52
2018-12-05T08:50:55.091Z,6.84
2018-12-05T08:53:29.063Z,6.89
2018-12-05T08:56:25.173Z,6.95
2018-12-05T08:58:56.292Z,6.98
2018-12-05T09:01:27.739Z,7.03
2018-12-05T09:04:00.129Z,7.07
2018-12-05T09:06:31.357Z,7.12
2018-12-05T09:09:12.318Z,7.19
2018-12-05T09:11:40.734Z,7.24
2018-12-05T09:14:32.412Z,7.28
2018-12-05T09:17:13.191Z,7.32
2018-12-05T09:19:41.510Z,7.36
2018-12-05T09:22:24.253Z,7.40
2018-12-05T09:24:55.907Z,7.46
2018-12-05T09:27:36.563Z,7.51
2018-12-05T09:30:18.899Z,7.57
2018-12-05T09:33:01.524Z,7.61
2018-12-05T09:35:43.010Z,7.37
2018-12-05T09:38:23.838Z,7.73
2018-12-05T09:41:05.210Z,7.77
2018-12-05T09:43:47.323Z,7.48
2018-12-05T09:46:30.172Z,7.85
2018-12-05T09:52:11.549Z,7.95
2018-12-05T09:54:41.384Z,7.98
2018-12-05T09:57:23.346Z,7.64
2018-12-05T10:06:00.271Z,8.16
2018-12-05T10:08:36.166Z,8.20
2018-12-05T10:11:10.142Z,8.26
2018-12-05T10:20:04.961Z,8.42
2018-12-05T10:22:47.692Z,8.47
2018-12-05T10:25:36.977Z,8.51
2018-12-05T10:28:19.817Z,8.56
2018-12-05T10:31:02.405Z,8.59
2018-12-05T10:33:43.158Z,8.64
2018-12-05T10:36:24.703Z,8.37
2018-12-05T10:39:06.638Z,8.46
2018-12-05T10:41:48.703Z,8.81
2018-12-05T10:44:30.241Z,8.54
2018-12-05T10:47:11.792Z,8.92
2018-12-05T10:49:53.206Z,8.69
2018-12-05T10:52:35.653Z,8.99
2018-12-05T10:55:29.335Z,8.64
2018-12-05T10:57:57.688Z,9.06
2018-12-05T11:03:26.244Z,9.09
2018-12-05T11:06:12.697Z,9.09
2018-12-05T11:11:39.546Z,9.11
2018-12-05T11:14:30.058Z,9.11
2018-12-05T11:17:17.509Z,8.84
2018-12-05T11:22:46.500Z,9.18
2018-12-05T11:27:50.022Z,9.20
2018-12-05T11:30:18.376Z,9.20
2018-12-05T11:32:46.678Z,9.22
2018-12-05T11:35:15.097Z,9.21
2018-12-05T11:37:56.996Z,9.25
2018-12-05T11:40:25.303Z,9.28
2018-12-05T11:43:06.279Z,9.32
2018-12-05T11:45:47.824Z,9.32
2018-12-05T11:48:29.413Z,9.32
2018-12-05T11:50:57.693Z,9.32
2018-12-05T11:53:38.459Z,9.32
2018-12-05T11:56:19.881Z,9.33
2018-12-05T11:59:00.571Z,9.32
2018-12-05T12:01:43.227Z,9.31
2018-12-05T12:04:24.714Z,9.31
2018-12-05T12:07:10.190Z,9.31
2018-12-05T12:09:54.007Z,9.32
2018-12-05T12:12:48.332Z,9.31
2018-12-05T12:15:33.745Z,9.31
2018-12-05T12:18:02.202Z,9.30
2018-12-05T12:20:43.652Z,8.98
2018-12-05T12:23:25.098Z,9.27
2018-12-05T12:26:06.583Z,8.97
2018-12-05T12:28:48.059Z,8.96
2018-12-05T12:31:19.375Z,9.28
2018-12-05T12:34:02.423Z,9.28
2018-12-05T12:36:43.175Z,8.98
2018-12-05T12:39:24.749Z,8.95
2018-12-05T12:42:05.409Z,9.30
2018-12-05T12:44:50.906Z,9.31
2018-12-05T12:47:31.619Z,9.17
2018-12-05T12:50:12.446Z,9.38
2018-12-05T12:52:54.794Z,9.41
2018-12-05T12:55:35.589Z,9.45
2018-12-05T12:58:18.083Z,9.47
2018-12-05T13:00:59.626Z,9.49
2018-12-05T13:03:41.214Z,9.50
2018-12-05T13:06:24.001Z,9.52
2018-12-05T13:08:55.429Z,9.55
2018-12-05T13:11:36.484Z,9.56
2018-12-05T13:14:17.752Z,9.60
2018-12-05T13:16:51.086Z,9.63
2018-12-05T13:19:26.681Z,9.66
2018-12-05T13:22:15.967Z,9.69
2018-12-05T13:24:57.850Z,9.75
2018-12-05T13:27:38.619Z,9.77
2018-12-05T13:30:23.135Z,9.82
2018-12-05T13:32:54.395Z,9.86
2018-12-05T13:35:24.390Z,9.90
2018-12-05T13:38:09.385Z,9.95
2018-12-05T13:40:51.965Z,10.00
2018-12-05T13:46:49.593Z,9.82
2018-12-05T13:49:17.891Z,10.13
2018-12-05T13:52:00.535Z,10.13
2018-12-05T13:54:28.878Z,10.13
2018-12-05T13:57:11.737Z,10.13
2018-12-05T13:59:40.043Z,10.10
2018-12-05T14:02:22.013Z,10.10
2018-12-05T14:05:10.170Z,9.84
2018-12-05T14:07:38.517Z,10.12
2018-12-05T14:10:20.560Z,10.10
2018-12-05T14:12:49.055Z,10.10
2018-12-05T14:15:31.706Z,10.08
2018-12-05T14:18:01.747Z,10.09
2018-12-05T14:23:43.927Z,10.04
2018-12-05T14:26:12.286Z,9.91
2018-12-05T14:28:52.949Z,10.01
2018-12-05T14:31:44.994Z,9.99
2018-12-05T14:34:27.964Z,9.99
2018-12-05T14:37:10.641Z,9.95
2018-12-05T14:40:04.194Z,9.92
2018-12-05T14:42:56.303Z,9.86
2018-12-05T14:45:43.903Z,9.82
2018-12-05T14:48:19.041Z,9.79
2018-12-05T14:50:47.410Z,9.77
2018-12-05T14:53:15.777Z,9.73
2018-12-05T14:55:44.093Z,9.71
2018-12-05T14:58:25.481Z,9.67
2018-12-05T15:01:07.020Z,9.67
2018-12-05T15:03:59.019Z,9.64
2018-12-05T15:06:50.388Z,9.64
2018-12-05T15:09:32.350Z,9.63
2018-12-05T15:12:26.814Z,9.60
2018-12-05T15:15:08.343Z,9.58
2018-12-05T15:17:36.635Z,9.57
2018-12-05T15:20:05.111Z,9.56
2018-12-05T15:22:47.946Z,9.54
2018-12-05T15:25:33.457Z,9.54
2018-12-05T15:28:01.750Z,9.53
2018-12-05T15:30:30.266Z,9.51
2018-12-05T15:33:20.480Z,9.49
2018-12-05T15:35:48.782Z,9.51
2018-12-05T15:38:17.132Z,9.50
2018-12-05T15:40:45.448Z,9.50
2018-12-05T15:43:32.918Z,9.47
2018-12-05T15:46:13.773Z,9.47
2018-12-05T15:48:55.236Z,9.46
2018-12-05T15:51:36.808Z,9.45
2018-12-05T15:54:18.356Z,9.44
2018-12-05T15:56:46.627Z,9.42
2018-12-05T15:59:29.417Z,9.41
2018-12-05T16:02:11.863Z,9.39
2018-12-05T16:04:53.438Z,9.11
2018-12-05T16:07:34.879Z,9.37
2018-12-05T16:10:03.225Z,9.36
2018-12-05T16:12:50.666Z,9.33
2018-12-05T16:15:18.969Z,9.31
2018-12-05T16:18:01.153Z,9.32
2018-12-05T16:23:19.328Z,9.31
2018-12-05T16:26:10.442Z,9.31
2018-12-05T16:28:47.042Z,8.98
2018-12-05T16:31:27.669Z,9.11
2018-12-05T16:33:55.974Z,9.32
2018-12-05T16:36:36.671Z,9.13
2018-12-05T16:39:19.987Z,9.32
2018-12-05T16:41:48.251Z,9.35
2018-12-05T16:44:30.308Z,9.14
2018-12-05T16:47:11.817Z,9.38
2018-12-05T16:49:53.372Z,9.11
2018-12-05T16:52:43.611Z,9.40
2018-12-05T16:55:24.263Z,9.41
2018-12-05T16:57:52.692Z,9.44
2018-12-05T17:00:39.951Z,9.44
2018-12-05T17:03:22.847Z,9.15
2018-12-05T17:05:51.094Z,9.45
2018-12-05T17:08:31.856Z,9.46
2018-12-05T17:11:30.221Z,9.47
2018-12-05T17:14:18.380Z,9.48
2018-12-05T17:16:49.842Z,9.50
2018-12-05T17:19:18.152Z,9.52
2018-12-05T17:21:46.498Z,9.54
2018-12-05T17:24:14.829Z,9.57
2018-12-05T17:27:03.121Z,9.60
2018-12-05T17:29:31.475Z,9.61
2018-12-05T17:31:59.871Z,9.65
2018-12-05T17:34:45.110Z,9.32
2018-12-05T17:37:13.372Z,9.68
2018-12-05T17:39:41.734Z,9.69
2018-12-05T17:42:23.980Z,9.39
2018-12-05T17:45:05.533Z,9.70
2018-12-05T17:47:47.095Z,9.67
2018-12-05T17:50:15.365Z,9.69
2018-12-05T17:52:43.677Z,9.69
2018-12-05T17:55:12.019Z,9.69
2018-12-05T17:57:40.321Z,9.69
2018-12-05T18:00:23.099Z,9.70
2018-12-05T18:03:10.373Z,9.40
2018-12-05T18:05:51.202Z,9.66
2018-12-05T18:08:19.484Z,9.64
2018-12-05T18:10:47.840Z,9.62
2018-12-05T18:13:28.907Z,9.30
2018-12-05T18:16:10.336Z,9.60
2018-12-05T18:19:04.794Z,9.31
2018-12-05T18:21:33.140Z,9.59
2018-12-05T18:24:01.519Z,9.60
2018-12-05T18:26:29.861Z,9.60
2018-12-05T18:28:58.254Z,9.60
2018-12-05T18:31:26.601Z,9.62
2018-12-05T18:34:08.472Z,9.63
2018-12-05T18:36:36.751Z,9.66
2018-12-05T18:39:19.520Z,9.38
2018-12-05T18:42:01.940Z,9.67
2018-12-05T18:44:45.429Z,9.68
2018-12-05T18:47:26.938Z,9.48
2018-12-05T18:50:08.699Z,9.69
2018-12-05T18:52:49.896Z,9.69
2018-12-05T18:55:31.333Z,9.68
2018-12-05T18:57:59.744Z,9.68
2018-12-05T19:00:40.509Z,9.69
2018-12-05T19:03:08.837Z,9.71
2018-12-05T19:05:49.736Z,9.72
2018-12-05T19:08:18.064Z,9.75
2018-12-05T19:10:46.425Z,9.77
2018-12-05T19:13:14.736Z,9.79
2018-12-05T19:15:49.563Z,9.79
2018-12-05T19:18:31.671Z,9.80
2018-12-05T19:20:59.967Z,9.79
2018-12-05T19:23:42.762Z,9.78
2018-12-05T19:26:11.050Z,9.77
2018-12-05T19:28:55.895Z,9.71
2018-12-05T19:31:37.401Z,9.77
2018-12-05T19:34:05.751Z,9.77
2018-12-05T19:36:48.412Z,9.46
2018-12-05T19:39:16.728Z,9.78
2018-12-05T19:41:45.033Z,9.79
2018-12-05T19:44:13.389Z,9.79
2018-12-05T19:46:41.742Z,9.81
2018-12-05T19:49:22.490Z,9.82
2018-12-05T19:52:05.011Z,9.82
2018-12-05T19:54:46.579Z,9.84
2018-12-05T19:57:14.893Z,9.84
2018-12-05T19:59:43.209Z,9.84
2018-12-05T20:02:25.269Z,9.45
2018-12-05T20:04:53.671Z,9.84
2018-12-05T20:07:21.964Z,9.85
2018-12-05T20:10:04.216Z,9.59
2018-12-05T20:12:45.647Z,9.86
2018-12-05T20:15:13.967Z,9.88
2018-12-05T20:17:58.697Z,9.90
2018-12-05T20:20:27.104Z,9.91
2018-12-05T20:22:55.372Z,9.92
2018-12-05T20:25:23.654Z,9.93
2018-12-05T20:28:06.448Z,9.93
2018-12-05T20:30:34.724Z,9.93
2018-12-05T20:33:17.512Z,9.65
2018-12-05T20:35:59.096Z,9.95
2018-12-05T20:38:41.441Z,9.96
2018-12-05T20:41:09.727Z,9.96
2018-12-05T20:43:50.781Z,9.95
2018-12-05T20:46:32.312Z,9.65
2018-12-05T20:49:13.879Z,9.95
2018-12-05T20:51:42.205Z,9.94
2018-12-05T20:54:23.096Z,9.62
2018-12-05T20:57:04.555Z,9.77
2018-12-05T20:59:45.934Z,9.91
2018-12-05T21:02:36.020Z,9.61
2018-12-05T21:05:17.914Z,9.61
2018-12-05T21:07:46.211Z,9.87
2018-12-05T21:10:14.548Z,9.86
2018-12-05T21:12:55.512Z,9.85
2018-12-05T21:15:23.814Z,9.85
2018-12-05T21:17:52.196Z,9.83
2018-12-05T21:20:34.397Z,9.52
2018-12-05T21:23:02.748Z,9.79
2018-12-05T21:25:47.433Z,9.79
2018-12-05T21:28:15.753Z,9.80
2018-12-05T21:30:56.675Z,9.79
2018-12-05T21:33:39.245Z,9.80
2018-12-05T21:36:07.555Z,9.81
2018-12-05T21:38:35.803Z,9.80
2018-12-05T21:41:17.880Z,9.82
2018-12-05T21:43:59.418Z,9.83
2018-12-05T21:46:27.729Z,9.84
2018-12-05T21:49:08.487Z,9.85
2018-12-05T21:51:49.997Z,9.85
2018-12-05T21:54:32.499Z,9.85
2018-12-05T21:57:14.907Z,9.87
2018-12-05T21:59:57.476Z,9.87
2018-12-05T22:02:25.771Z,9.88
2018-12-05T22:05:06.714Z,9.88
2018-12-05T22:07:35.021Z,9.87
2018-12-05T22:10:16.004Z,9.87
2018-12-05T22:12:44.319Z,9.86
2018-12-05T22:15:12.583Z,9.86
2018-12-05T22:17:40.884Z,9.84
2018-12-05T22:20:32.962Z,9.84
2018-12-05T22:23:13.890Z,9.83
2018-12-05T22:25:56.054Z,9.84
2018-12-05T22:28:36.843Z,9.83
2018-12-05T22:31:28.946Z,9.83
2018-12-05T22:34:11.667Z,9.83
2018-12-05T22:36:39.955Z,9.83
2018-12-05T22:39:21.992Z,9.82
2018-12-05T22:41:50.299Z,9.83
2018-12-05T22:44:32.272Z,9.83
2018-12-05T22:47:00.739Z,9.84
2018-12-05T22:49:29.019Z,9.84
2018-12-05T22:52:11.971Z,9.85
2018-12-05T22:54:54.575Z,9.86
2018-12-05T22:57:36.192Z,9.87
2018-12-05T23:00:18.391Z,9.88
2018-12-05T23:02:46.667Z,9.88
2018-12-05T23:05:38.183Z,9.89
2018-12-05T23:08:20.156Z,9.92
2018-12-05T23:11:00.859Z,9.62
2018-12-05T23:13:42.408Z,9.90
2018-12-05T23:16:23.959Z,9.90
2018-12-05T23:18:52.218Z,9.88
2018-12-05T23:21:33.170Z,9.88
2018-12-05T23:24:01.434Z,9.88
2018-12-05T23:26:29.726Z,9.86
2018-12-05T23:28:58.006Z,9.84
2018-12-05T23:31:40.672Z,9.82
2018-12-05T23:34:21.300Z,9.49
2018-12-05T23:36:49.567Z,9.78
2018-12-05T23:39:17.886Z,9.75
2018-12-05T23:41:59.390Z,9.45
2018-12-05T23:44:27.681Z,9.71
2018-12-05T23:47:19.030Z,9.69
2018-12-05T23:49:47.320Z,9.68
2018-12-05T23:52:29.454Z,9.36
2018-12-05T23:55:11.033Z,9.65
2018-12-05T23:57:39.338Z,9.65
